Time;durP1;ratioP1;P1;durP2;ratioP2;P2;SDS_P1;SDS_P2;PMS_P1;PMS_P2;Temp;Humidity;BMP_temperature;BMP_pressure;BME280_temperature;BME280_humidity;BME280_pressure;Samples;Min_cycle;Max_cycle;Signal;HPM_P1;HPM_P2
2021/11/12 00:13:35;;;;;;;70.35;32.30;;;;;;;6.64;87.59;101560.64;1714641;83;21037;-79
2021/11/12 00:16:03;;;;;;;75.20;32.20;;;;;;;6.65;87.59;101563.66;1725837;82;21028;-79
2021/11/12 00:18:32;;;;;;;74.72;32.70;;;;;;;6.67;87.59;101562.39;1725972;82;21431;-79
2021/11/12 00:21:03;;;;;;;78.95;33.80;;;;;;;6.67;87.60;101564.95;1678599;84;20977;-79
2021/11/12 00:23:33;;;;;;;76.65;32.83;;;;;;;6.67;87.59;101558.11;1697334;83;21302;-79
2021/11/12 00:26:00;;;;;;;82.08;32.67;;;;;;;6.66;87.64;101557.67;1712007;83;21096;-79
2021/11/12 00:28:34;;;;;;;65.78;31.02;;;;;;;6.67;87.59;101555.55;1710142;83;21053;-79
2021/11/12 00:31:16;;;;;;;73.05;32.13;;;;;;;6.67;87.60;101553.39;1725090;82;21090;-79
2021/11/12 00:36:40;;;;;;;75.97;32.23;;;;;;;6.68;87.63;101557.69;1628631;84;21036;-79
2021/11/12 00:41:33;;;;;;;79.50;33.10;;;;;;;6.69;87.68;101553.00;1706672;83;21020;-79
2021/11/12 00:44:17;;;;;;;68.55;30.62;;;;;;;6.70;87.67;101555.59;1725768;82;21639;-79
2021/11/12 00:46:50;;;;;;;78.70;31.80;;;;;;;6.70;87.63;101562.02;1702443;82;21568;-79
2021/11/12 00:49:18;;;;;;;69.20;32.48;;;;;;;6.69;87.64;101552.58;1726373;82;21061;-79
2021/11/12 00:51:44;;;;;;;75.65;32.93;;;;;;;6.69;87.64;101557.72;1726084;82;21104;-79
2021/11/12 00:54:16;;;;;;;74.82;30.50;;;;;;;6.70;87.68;101558.58;1721773;82;21037;-79
2021/11/12 00:56:42;;;;;;;77.22;31.27;;;;;;;6.71;87.68;101555.17;1728006;82;21482;-79
2021/11/12 00:59:09;;;;;;;82.12;34.05;;;;;;;6.72;87.69;101564.19;1713913;83;21063;-78
2021/11/12 01:01:40;;;;;;;70.97;30.48;;;;;;;6.73;87.69;101559.49;1716882;82;21441;-78
2021/11/12 01:04:10;;;;;;;72.12;30.55;;;;;;;6.74;87.73;101565.50;1750728;81;21102;-78
2021/11/12 01:06:39;;;;;;;74.62;30.17;;;;;;;6.75;87.73;101562.08;1721517;82;20902;-78
2021/11/12 01:09:09;;;;;;;77.53;31.70;;;;;;;6.75;87.74;101562.95;1718437;82;20953;-78
2021/11/12 01:11:36;;;;;;;77.42;31.35;;;;;;;6.77;87.72;101564.22;1708630;82;20869;-78
2021/11/12 01:14:05;;;;;;;76.30;32.67;;;;;;;6.78;87.75;101567.23;1694217;82;20909;-78
2021/11/12 01:16:32;;;;;;;74.65;30.77;;;;;;;6.78;87.78;101568.52;1732511;82;21054;-78
2021/11/12 01:18:58;;;;;;;70.97;31.20;;;;;;;6.80;87.78;101565.14;1738181;82;20939;-78
2021/11/12 01:21:25;;;;;;;75.17;31.87;;;;;;;6.80;87.79;101572.84;1692430;84;20901;-78
2021/11/12 01:23:54;;;;;;;75.37;32.05;;;;;;;6.81;87.77;101568.15;1712453;82;20909;-78
2021/11/12 01:26:23;;;;;;;81.72;32.83;;;;;;;6.83;87.81;101557.89;1692158;83;20870;-78
2021/11/12 01:28:51;;;;;;;83.72;32.30;;;;;;;6.83;87.81;101554.03;1708673;83;20878;-78
2021/11/12 01:31:22;;;;;;;68.10;32.50;;;;;;;6.83;87.81;101554.89;1716834;82;20935;-78
2021/11/12 01:33:47;;;;;;;72.58;29.63;;;;;;;6.83;87.79;101558.75;1717690;81;20909;-78
2021/11/12 01:36:34;;;;;;;77.60;32.53;;;;;;;6.84;87.80;101563.47;1708757;82;20944;-78
2021/11/12 01:39:00;;;;;;;70.12;29.70;;;;;;;6.84;87.80;101560.48;1707532;83;20909;-78
2021/11/12 01:41:26;;;;;;;71.80;30.17;;;;;;;6.86;87.81;101569.50;1717636;82;20901;-78
2021/11/12 01:43:56;;;;;;;67.20;29.55;;;;;;;6.85;87.81;101559.64;1723719;82;20931;-78
2021/11/12 01:46:33;;;;;;;76.25;31.80;;;;;;;6.85;87.79;101556.20;1721411;82;20942;-78
2021/11/12 01:59:18;;;;;;;71.02;30.30;;;;;;;6.88;87.88;101562.25;1724288;82;20917;-78
2021/11/12 02:01:59;;;;;;;68.92;29.92;;;;;;;6.89;87.85;101557.98;1733134;82;21094;-78
2021/11/12 02:04:30;;;;;;;77.62;32.28;;;;;;;6.89;87.87;101560.55;1735432;82;21009;-78
2021/11/12 02:06:58;;;;;;;74.87;32.38;;;;;;;6.89;87.88;101567.84;1714218;82;21056;-79
2021/11/12 02:09:27;;;;;;;69.70;30.45;;;;;;;6.90;87.89;101567.42;1722366;82;21654;-78
2021/11/12 02:12:02;;;;;;;80.53;32.40;;;;;;;6.90;87.88;101562.28;1738249;82;20942;-78
2021/11/12 02:14:29;;;;;;;79.85;31.20;;;;;;;6.90;87.88;101565.71;1722456;80;20920;-78
2021/11/12 02:17:02;;;;;;;76.87;32.08;;;;;;;6.92;87.89;101568.30;1706997;82;21056;-78
2021/11/12 02:19:27;;;;;;;76.57;30.95;;;;;;;6.92;87.91;101565.31;1706589;82;21037;-78
2021/11/12 02:22:08;;;;;;;75.87;30.70;;;;;;;6.93;87.90;101562.32;1721199;82;21079;-79
2021/11/12 02:24:41;;;;;;;76.00;30.55;;;;;;;6.92;87.85;101566.59;1730373;82;21060;-78
2021/11/12 02:27:10;;;;;;;72.37;30.65;;;;;;;6.93;87.93;101564.47;1728913;82;21080;-78
2021/11/12 02:29:37;;;;;;;72.87;31.73;;;;;;;6.95;87.92;101564.49;1723217;82;22155;-78
2021/11/12 02:32:03;;;;;;;76.57;32.13;;;;;;;6.94;87.90;101564.91;1695572;82;21054;-79
2021/11/12 02:34:29;;;;;;;74.55;31.97;;;;;;;6.95;87.92;101556.36;1735968;82;26564;-79
2021/11/12 02:36:55;;;;;;;77.15;31.62;;;;;;;6.96;87.95;101561.94;1728179;82;21080;-78
2021/11/12 02:39:22;;;;;;;74.57;31.37;;;;;;;6.97;87.94;101565.37;1697921;82;20906;-78
2021/11/12 02:41:48;;;;;;;72.22;30.45;;;;;;;6.96;87.90;101565.80;1735790;82;21105;-78
2021/11/12 02:44:14;;;;;;;78.73;31.43;;;;;;;6.96;87.93;101569.66;1724228;82;21096;-78
2021/11/12 02:46:42;;;;;;;76.42;31.48;;;;;;;6.98;87.95;101559.39;1734745;82;21063;-78
2021/11/12 02:49:09;;;;;;;70.93;30.23;;;;;;;6.99;87.94;101564.98;1716815;82;21708;-78
2021/11/12 02:51:36;;;;;;;83.97;32.85;;;;;;;6.98;87.93;101565.41;1706182;83;21060;-78
2021/11/12 02:54:08;;;;;;;69.60;29.50;;;;;;;7.01;87.97;101559.44;1690205;83;20871;-78
2021/11/12 02:56:34;;;;;;;80.30;31.52;;;;;;;7.00;87.97;101561.56;1697664;83;20874;-78
2021/11/12 02:59:07;;;;;;;78.45;32.10;;;;;;;6.91;88.00;101546.01;1675811;83;20920;-78
2021/11/12 03:01:39;;;;;;;65.28;29.92;;;;;;;6.91;88.00;101546.01;1709426;83;20889;-78
2021/11/12 03:04:06;;;;;;;84.22;32.28;;;;;;;7.05;87.97;101570.62;1705042;82;20935;-78
2021/11/12 03:06:34;;;;;;;72.82;30.82;;;;;;;7.04;87.97;101564.63;1681065;83;20946;-78
2021/11/12 03:09:07;;;;;;;73.52;30.05;;;;;;;7.05;87.97;101559.05;1698079;83;20978;-79
2021/11/12 03:11:35;;;;;;;76.87;30.48;;;;;;;7.06;87.99;101558.22;1691309;83;20875;-78
2021/11/12 03:14:02;;;;;;;75.00;30.32;;;;;;;7.06;87.97;101557.80;1671068;84;20958;-78
2021/11/12 03:16:28;;;;;;;72.92;30.92;;;;;;;7.07;87.96;101554.38;1681617;83;21545;-78
2021/11/12 03:18:56;;;;;;;80.32;33.02;;;;;;;7.07;88.01;101554.38;1683742;83;20911;-78
2021/11/12 03:21:25;;;;;;;79.90;31.37;;;;;;;7.08;88.01;101552.67;1694259;83;20903;-78
2021/11/12 03:23:59;;;;;;;78.42;31.95;;;;;;;7.08;88.04;101547.11;1699918;83;20907;-78
2021/11/12 03:29:08;;;;;;;67.85;30.23;;;;;;;7.09;88.07;101550.54;1681124;84;27387;-78
2021/11/12 03:56:29;;;;;;;80.57;29.50;;;;;;;7.12;88.07;101557.88;1679024;83;21117;-78
2021/11/12 04:01:32;;;;;;;75.52;29.00;;;;;;;7.11;88.08;101560.42;1678904;83;21295;-78
2021/11/12 04:06:19;;;;;;;73.47;29.85;;;;;;;7.11;88.11;101560.00;1689795;83;21505;-78
2021/11/12 05:51:44;;;;;;;73.35;28.92;;;;;;;7.19;88.25;101585.41;1708377;83;20163;-78
2021/11/12 05:56:55;;;;;;;69.15;28.98;;;;;;;7.19;88.23;101593.55;1720249;82;20941;-77
2021/11/12 05:59:23;;;;;;;70.12;29.98;;;;;;;7.19;88.20;101600.84;1720018;83;20880;-78
2021/11/12 06:01:50;;;;;;;77.70;29.82;;;;;;;7.18;88.20;101596.96;1727358;82;20937;-78
2021/11/12 06:04:17;;;;;;;79.40;31.80;;;;;;;7.18;88.24;101589.24;1718315;81;21314;-78
2021/11/12 06:06:43;;;;;;;69.95;30.30;;;;;;;7.18;88.23;101584.96;1724091;81;21105;-78
2021/11/12 06:09:10;;;;;;;83.85;30.27;;;;;;;7.19;88.25;101581.97;1716623;83;20997;-78
2021/11/12 06:11:36;;;;;;;72.08;29.80;;;;;;;7.19;88.24;101587.11;1702415;83;21084;-78
2021/11/12 06:14:04;;;;;;;73.87;28.65;;;;;;;7.20;88.26;101591.41;1724147;82;21039;-77
2021/11/12 06:16:30;;;;;;;71.82;28.75;;;;;;;7.20;88.25;101612.86;1724788;82;20965;-77
2021/11/12 06:18:57;;;;;;;72.00;30.43;;;;;;;7.20;88.22;101613.28;1712418;83;21100;-77
2021/11/12 06:21:24;;;;;;;68.62;26.85;;;;;;;7.20;88.25;101623.56;1682727;83;21225;-77
2021/11/12 06:23:50;;;;;;;;;;;;;;;7.21;88.26;101624.88;1727585;82;21043;-77
2021/11/12 06:26:17;;;;;;;67.37;25.92;;;;;;;7.21;88.32;101631.73;1692808;83;20359;-77
2021/11/12 06:28:45;;;;;;;73.62;27.75;;;;;;;7.20;88.28;101630.86;1719824;81;21541;-77
2021/11/12 06:31:11;;;;;;;68.40;26.35;;;;;;;7.21;88.28;101636.45;1726219;82;20899;-77
2021/11/12 06:33:38;;;;;;;62.55;26.17;;;;;;;7.22;88.27;101634.74;1727807;83;20973;-77
2021/11/12 06:36:04;;;;;;;74.27;28.92;;;;;;;7.23;88.26;101639.91;1724581;83;20883;-77
2021/11/12 06:38:31;;;;;;;71.33;27.30;;;;;;;7.23;88.29;101632.19;1724524;82;20914;-77
2021/11/12 06:41:02;;;;;;;65.55;26.93;;;;;;;7.24;88.32;101632.63;1745774;81;186370;-77
2021/11/12 06:43:30;;;;;;;69.15;27.52;;;;;;;7.24;88.29;101633.06;1735672;81;21011;-78
2021/11/12 06:51:24;;;;;;;78.33;29.32;;;;;;;7.29;88.31;101637.39;1737231;81;21017;-77
2021/11/12 06:53:53;;;;;;;77.65;29.87;;;;;;;7.30;88.30;101639.12;1748829;81;20884;-77
2021/11/12 06:56:21;;;;;;;76.15;29.52;;;;;;;7.31;88.30;101641.27;1739538;81;20934;-77
2021/11/12 06:58:48;;;;;;;80.12;29.75;;;;;;;7.34;88.30;101645.59;1749947;81;21010;-77
2021/11/12 07:01:14;;;;;;;74.42;28.85;;;;;;;7.35;88.32;101646.03;1739095;80;279296;-77
2021/11/12 07:03:40;;;;;;;79.47;30.27;;;;;;;7.34;88.29;101643.89;1743103;81;21645;-77
2021/11/12 07:06:08;;;;;;;82.47;29.87;;;;;;;7.36;88.31;101646.48;1745666;81;21033;-77
2021/11/12 07:08:34;;;;;;;80.60;32.03;;;;;;;7.37;88.32;101638.78;1735015;81;20989;-77
2021/11/12 07:11:01;;;;;;;76.45;30.88;;;;;;;7.39;88.34;101643.95;1743367;81;20910;-77
2021/11/12 07:46:35;;;;;;;91.50;34.63;;;;;;;7.48;88.38;101629.92;1722192;83;20902;-76
2021/11/12 07:48:53;;;;;;;86.63;33.92;;;;;;;7.48;88.42;101626.92;1743307;80;20943;-77
2021/11/12 07:51:19;;;;;;;93.20;37.70;;;;;;;7.50;88.41;101632.09;1725954;83;21605;-77
2021/11/12 07:53:46;;;;;;;93.20;36.40;;;;;;;7.50;88.39;101629.09;1698963;83;21800;-77
2021/11/12 07:56:13;;;;;;;92.17;36.28;;;;;;;7.49;88.35;101633.80;1723764;82;20898;-77
2021/11/12 07:58:40;;;;;;;90.75;35.30;;;;;;;7.49;88.35;101629.94;1723220;82;21320;-77
2021/11/12 08:01:05;;;;;;;93.67;38.07;;;;;;;7.49;88.34;101622.22;1726672;82;21395;-77
2021/11/12 08:03:32;;;;;;;99.30;37.27;;;;;;;7.49;88.30;101622.64;1723686;81;22377;-77
2021/11/12 08:06:02;;;;;;;102.87;39.08;;;;;;;7.50;88.33;101626.52;1719845;80;20909;-77
2021/11/12 08:08:31;;;;;;;103.45;41.75;;;;;;;7.51;88.35;101627.39;1742080;81;20951;-77
2021/11/12 08:11:11;;;;;;;105.45;41.13;;;;;;;7.52;88.36;101632.55;1747994;81;20935;-77
2021/11/12 08:21:20;;;;;;;124.55;58.40;;;;;;;7.59;88.35;101628.34;1742978;81;21022;-80
2021/11/12 08:23:53;;;;;;;237.75;119.93;;;;;;;7.52;88.28;101615.83;1748372;81;20975;-80
2021/11/12 08:26:26;;;;;;;204.07;97.72;;;;;;;7.61;88.37;101635.24;1738191;81;21026;-80
2021/11/12 08:29:32;;;;;;;440.65;244.37;;;;;;;7.64;88.35;101637.86;1740052;81;21521;-79
2021/11/12 08:33:47;;;;;;;297.03;169.93;;;;;;;7.67;88.36;101628.02;1692735;84;20973;-79
2021/11/12 08:36:27;;;;;;;155.35;76.97;;;;;;;7.69;88.38;101628.91;1722150;81;21135;-79
2021/11/12 08:38:50;;;;;;;178.30;92.17;;;;;;;7.70;88.36;101635.78;1747400;81;21535;-79
2021/11/12 08:41:19;;;;;;;121.50;60.20;;;;;;;7.71;88.34;101634.94;1750773;81;20866;-79
2021/11/12 08:43:51;;;;;;;107.80;50.23;;;;;;;7.71;88.33;101637.94;1752247;81;20864;-79
2021/11/12 08:46:21;;;;;;;111.52;53.35;;;;;;;7.73;88.35;101634.95;1741995;81;21374;-79
2021/11/12 08:48:55;;;;;;;109.60;50.63;;;;;;;7.75;88.37;101644.85;1725851;81;20970;-79
2021/11/12 08:51:14;;;;;;;98.33;43.60;;;;;;;7.74;88.30;101642.70;1746475;80;21362;-79
2021/11/12 08:53:43;;;;;;;104.75;48.25;;;;;;;7.74;88.33;101643.13;1710574;81;21524;-79
2021/11/12 08:56:13;;;;;;;89.35;39.50;;;;;;;7.77;88.36;101640.58;1747675;81;20886;-79
2021/11/12 08:58:46;;;;;;;111.15;53.92;;;;;;;7.78;88.35;101634.16;1723662;82;20916;-79
2021/11/12 09:01:13;;;;;;;88.78;36.77;;;;;;;7.80;88.38;101633.73;1724567;81;20911;-79
2021/11/12 09:03:40;;;;;;;110.95;51.48;;;;;;;7.82;88.38;101642.76;1724389;81;21362;-79
2021/11/12 09:06:06;;;;;;;86.25;38.58;;;;;;;7.84;88.38;101646.21;1706492;82;20903;-79
2021/11/12 09:08:36;;;;;;;88.78;35.63;;;;;;;7.87;88.39;101647.54;1723529;82;21483;-79
2021/11/12 09:11:07;;;;;;;88.97;36.48;;;;;;;7.88;88.39;101640.25;1677512;83;21481;-79
2021/11/12 09:16:15;;;;;;;80.30;33.78;;;;;;;7.91;88.37;101628.28;1723828;83;20937;-79
2021/11/12 09:18:48;;;;;;;91.85;39.10;;;;;;;7.93;88.37;101632.16;1722916;82;21374;-79
2021/11/12 09:21:16;;;;;;;111.72;42.50;;;;;;;7.95;88.40;101636.91;1722708;82;20933;-77
2021/11/12 09:23:45;;;;;;;110.78;42.38;;;;;;;7.96;88.37;101637.34;1724316;83;21382;-83
2021/11/12 09:26:12;;;;;;;103.07;42.50;;;;;;;7.97;88.38;101641.22;1682977;83;20871;-80
2021/11/12 09:28:38;;;;;;;;;;;;;;;7.98;88.38;101632.66;1706208;83;21430;-79
2021/11/12 09:31:10;;;;;;;94.85;39.25;;;;;;;8.00;88.42;101627.94;1721084;82;20406;-81
2021/11/12 09:33:37;;;;;;;92.53;39.58;;;;;;;8.00;88.40;101621.08;1721687;83;20914;-81
2021/11/12 09:36:06;;;;;;;;;;;;;;;8.03;88.38;101619.83;1722625;82;21024;-83
2021/11/12 09:38:32;;;;;;;84.52;38.88;;;;;;;8.04;88.42;101615.11;1723527;81;20149;-83
2021/11/12 09:40:58;;;;;;;84.03;36.07;;;;;;;8.05;88.38;101619.41;1719868;83;20981;-80
2021/11/12 09:43:25;;;;;;;89.83;36.68;;;;;;;8.08;88.39;101618.59;1714411;82;21541;-78
2021/11/12 09:45:54;;;;;;;107.65;41.33;;;;;;;8.11;88.41;101616.04;1721560;81;21112;-81
2021/11/12 09:48:21;;;;;;;109.03;45.30;;;;;;;8.13;88.38;101616.92;1719069;83;21045;-79
2021/11/12 09:50:51;;;;;;;106.03;43.65;;;;;;;8.14;88.36;101613.07;1705637;83;21120;-82
2021/11/12 09:53:18;;;;;;;99.60;42.20;;;;;;;8.14;88.30;101619.52;1679798;83;20943;-81
2021/11/12 09:55:45;;;;;;;;;;;;;;;8.13;88.27;101618.20;1742192;81;21545;-82
2021/11/12 09:58:14;;;;;;;89.92;39.83;;;;;;;8.15;88.33;101623.81;1762903;79;20472;-85
2021/11/12 10:00:42;;;;;;;90.55;39.83;;;;;;;8.17;88.29;101614.81;1760709;79;21545;-85
2021/11/12 10:03:10;;;;;;;87.60;39.38;;;;;;;8.17;88.33;101612.23;1771212;79;21032;-81
2021/11/12 10:05:46;;;;;;;104.87;42.20;;;;;;;8.19;88.32;101607.97;1704785;83;21125;-81
2021/11/12 10:08:36;;;;;;;99.70;43.55;;;;;;;8.20;88.31;101613.13;1706735;82;20961;-80
2021/11/12 10:11:07;;;;;;;97.75;42.35;;;;;;;8.23;88.33;101614.88;1736684;81;21555;-79
2021/11/12 10:13:41;;;;;;;102.32;43.13;;;;;;;8.24;88.31;101613.60;1751512;81;20960;-82
2021/11/12 10:19:14;;;;;;;92.60;40.80;;;;;;;8.28;88.33;101602.90;1760920;81;21098;-82
2021/11/12 10:21:48;;;;;;;77.90;36.10;;;;;;;8.29;88.32;101599.47;1753959;80;21132;-82
2021/11/12 10:24:19;;;;;;;86.82;38.98;;;;;;;8.31;88.34;101595.20;1763273;81;21092;-81
2021/11/12 10:26:51;;;;;;;89.22;38.78;;;;;;;8.33;88.35;101581.91;1755302;81;21622;-80
2021/11/12 10:29:26;;;;;;;85.40;37.13;;;;;;;8.37;88.37;101584.08;1766740;81;20949;-82
2021/11/12 10:31:57;;;;;;;81.92;37.10;;;;;;;8.41;88.36;101585.41;1738693;81;21464;-81
2021/11/12 10:34:28;;;;;;;83.90;37.75;;;;;;;8.42;88.30;101580.69;1760811;80;20914;-80
2021/11/12 10:37:03;;;;;;;78.57;36.05;;;;;;;8.46;88.32;101571.27;1766723;81;20904;-82
2021/11/12 10:39:51;;;;;;;89.30;39.05;;;;;;;8.48;88.32;101568.28;1764855;80;21552;-82
2021/11/12 10:42:25;;;;;;;85.15;38.38;;;;;;;8.54;88.33;101567.05;1739906;80;20893;-81
2021/11/12 10:44:56;;;;;;;80.85;36.15;;;;;;;8.58;88.31;101564.50;1733116;80;21064;-80
2021/11/12 10:47:25;;;;;;;76.95;35.80;;;;;;;8.62;88.28;101560.23;1764273;80;20953;-79
2021/11/12 10:50:05;;;;;;;75.28;33.18;;;;;;;8.62;88.22;101557.23;1742649;81;20891;-80
2021/11/12 10:52:39;;;;;;;81.90;35.80;;;;;;;8.65;88.26;101565.41;1749152;79;20964;-82
2021/11/12 10:55:17;;;;;;;73.28;33.40;;;;;;;8.68;88.23;101564.56;1730835;82;28265;-80
2021/11/12 10:57:51;;;;;;;78.45;34.73;;;;;;;8.68;88.22;101565.43;1692728;82;20926;-81
2021/11/12 11:00:27;;;;;;;80.87;34.27;;;;;;;8.70;88.23;101562.44;1743721;81;21097;-80
2021/11/12 11:03:02;;;;;;;77.62;32.83;;;;;;;8.71;88.17;101563.30;1725033;83;21556;-79
2021/11/12 11:05:41;;;;;;;74.82;35.03;;;;;;;8.71;88.15;101566.74;1750390;80;21522;-81
2021/11/12 11:08:26;;;;;;;75.35;33.50;;;;;;;8.69;88.13;101556.84;1747039;81;20952;-82
2021/11/12 11:11:06;;;;;;;81.12;33.53;;;;;;;8.71;88.21;101556.86;1749851;81;20949;-82
2021/11/12 11:13:38;;;;;;;71.70;32.60;;;;;;;8.71;88.18;101551.27;1748143;81;20946;-82
2021/11/12 11:16:18;;;;;;;78.65;33.10;;;;;;;8.71;88.16;101547.41;1750341;80;21001;-80
2021/11/12 11:18:44;;;;;;;72.03;31.25;;;;;;;8.70;88.16;101545.68;1751491;81;20871;-81
2021/11/12 11:21:24;;;;;;;71.72;32.35;;;;;;;8.68;88.15;101543.94;1721764;81;20957;-78
2021/11/12 11:24:00;;;;;;;71.57;30.10;;;;;;;8.67;88.14;101535.77;1721403;82;20938;-79
2021/11/12 11:26:45;;;;;;;56.85;27.52;;;;;;;8.66;88.17;101539.20;1720935;83;20861;-79
2021/11/12 11:29:22;;;;;;;65.67;27.80;;;;;;;8.66;88.19;101532.75;1720852;81;20987;-77
2021/11/12 11:31:54;;;;;;;60.92;27.75;;;;;;;8.62;88.14;101525.42;1749143;81;20872;-77
2021/11/12 11:34:22;;;;;;;53.83;25.60;;;;;;;8.62;88.16;101518.55;1746395;81;20957;-79
2021/11/12 11:36:50;;;;;;;59.42;26.40;;;;;;;8.62;88.18;101516.41;1720691;81;21405;-78
2021/11/12 11:39:19;;;;;;;63.30;27.82;;;;;;;8.63;88.17;101510.39;1749481;81;20942;-78
2021/11/12 11:41:46;;;;;;;53.25;24.45;;;;;;;8.62;88.13;101506.09;1749745;81;20886;-78
2021/11/12 11:44:17;;;;;;;53.92;24.75;;;;;;;8.60;88.12;101507.80;1746686;81;20910;-78
2021/11/12 11:46:46;;;;;;;60.10;26.87;;;;;;;8.58;88.11;101508.21;1721470;83;20955;-78
2021/11/12 11:49:17;;;;;;;59.50;27.77;;;;;;;8.57;88.13;101506.06;1704088;82;20950;-78
2021/11/12 11:51:59;;;;;;;60.58;27.55;;;;;;;8.59;88.20;101495.76;1716736;81;20905;-78
2021/11/12 11:54:28;;;;;;;62.67;27.25;;;;;;;8.59;88.16;101490.17;1746990;81;20929;-79
2021/11/12 11:56:59;;;;;;;69.00;30.23;;;;;;;8.58;88.14;101488.88;1736725;81;20909;-79
2021/11/12 11:59:35;;;;;;;63.92;28.25;;;;;;;8.57;88.14;101486.73;1736790;82;20947;-78
2021/11/12 12:02:11;;;;;;;76.90;31.93;;;;;;;8.57;88.12;101484.15;1735822;82;20911;-78
2021/11/12 12:04:47;;;;;;;74.30;32.03;;;;;;;8.58;88.18;101484.59;1707891;82;21025;-78
2021/11/12 12:07:21;;;;;;;79.80;33.30;;;;;;;8.59;88.17;101479.86;1728943;82;21369;-78
2021/11/12 12:10:02;;;;;;;75.32;33.18;;;;;;;8.60;88.15;101480.73;1693089;82;21383;-78
2021/11/12 12:12:35;;;;;;;72.30;31.30;;;;;;;8.60;88.12;101479.02;1727905;81;21433;-76
2021/11/12 12:15:13;;;;;;;66.30;27.67;;;;;;;8.61;88.13;101475.58;1712640;82;20963;-78
2021/11/12 12:17:45;;;;;;;64.80;29.07;;;;;;;8.63;88.13;101466.56;1719954;82;20993;-76
2021/11/12 12:20:31;;;;;;;61.28;27.15;;;;;;;8.64;88.13;101467.00;1737103;82;21359;-76
2021/11/12 12:34:33;;;;;;;66.62;29.70;;;;;;;8.74;88.14;101462.76;1737515;82;21394;-78
2021/11/12 13:25:58;;;;;;;70.28;32.17;;;;;;;8.89;87.96;101449.91;1702546;82;21079;-80
2021/11/12 13:28:40;;;;;;;68.40;32.25;;;;;;;8.89;87.98;101451.20;1701969;84;21095;-79
2021/11/12 13:31:18;;;;;;;64.65;30.45;;;;;;;8.88;87.95;101449.47;1700709;82;21139;-79
2021/11/12 13:33:57;;;;;;;64.87;31.12;;;;;;;8.88;87.94;101442.59;1696391;82;21408;-79
2021/11/12 13:36:35;;;;;;;73.05;31.80;;;;;;;8.87;87.91;101445.17;1701721;83;21506;-82
2021/11/12 13:39:11;;;;;;;73.70;31.85;;;;;;;8.86;87.92;101446.89;1702973;83;24880;-82
2021/11/12 13:41:41;;;;;;;68.07;30.97;;;;;;;8.88;87.92;101446.89;1702466;84;20984;-80
2021/11/12 13:44:14;;;;;;;70.32;31.48;;;;;;;8.88;87.90;101449.05;1703261;82;21467;-79
2021/11/12 13:46:52;;;;;;;69.25;32.25;;;;;;;8.87;87.89;101449.90;1697347;84;21083;-81
2021/11/12 13:49:35;;;;;;;71.95;31.45;;;;;;;8.86;87.88;101442.16;1702225;82;20952;-80
2021/11/12 13:52:17;;;;;;;64.87;30.85;;;;;;;8.86;87.88;101446.89;1703746;84;20921;-81
2021/11/12 13:55:13;;;;;;;71.57;32.20;;;;;;;8.86;87.88;101448.17;1703756;84;20886;-81
2021/11/12 13:57:45;;;;;;;71.22;31.87;;;;;;;8.85;87.87;101448.17;1682143;83;20962;-80
2021/11/12 14:00:15;;;;;;;63.52;30.55;;;;;;;8.84;87.88;101460.63;1746862;81;20966;-81
2021/11/12 14:03:10;;;;;;;69.75;31.75;;;;;;;8.85;87.88;101462.35;1743153;80;20885;-80
2021/11/12 14:05:39;;;;;;;64.55;30.30;;;;;;;8.85;87.87;101459.34;1741983;82;20890;-80
2021/11/12 14:08:12;;;;;;;67.75;29.82;;;;;;;8.84;87.86;101457.63;1713443;82;20874;-80
2021/11/12 14:10:48;;;;;;;65.30;30.10;;;;;;;8.83;87.86;101455.07;1749381;82;20941;-80
2021/11/12 14:13:21;;;;;;;68.17;29.75;;;;;;;8.83;87.86;101451.20;1721088;82;20911;-79
2021/11/12 14:16:11;;;;;;;63.35;29.37;;;;;;;8.82;87.83;101455.92;1745499;80;20898;-79
2021/11/12 14:32:36;;;;;;;57.83;28.10;;;;;;;8.66;87.73;101433.06;1723126;83;21039;-76
2021/11/12 14:40:18;;;;;;;52.43;28.67;;;;;;;8.55;87.75;101426.56;1749867;80;20973;-76
2021/11/12 14:45:56;;;;;;;58.52;29.67;;;;;;;8.52;87.74;101425.27;1719807;81;21049;-75
2021/11/12 14:48:26;;;;;;;58.50;30.80;;;;;;;8.50;87.77;101412.80;1725102;82;21030;-75
2021/11/12 14:51:01;;;;;;;62.60;30.48;;;;;;;8.47;87.75;101419.22;1715782;82;21314;-75
2021/11/12 14:54:13;;;;;;;58.38;28.23;;;;;;;8.47;87.77;101424.38;1749441;80;20902;-75
2021/11/12 14:56:16;;;;;;;59.65;27.58;;;;;;;8.47;87.75;101426.95;1748638;80;20990;-75
2021/11/12 14:58:48;;;;;;;60.10;30.30;;;;;;;8.46;87.76;101420.50;1749376;80;20871;-75
2021/11/12 15:01:19;;;;;;;54.30;27.27;;;;;;;8.44;87.72;101420.91;1779719;80;20933;-75
2021/11/12 15:03:46;;;;;;;51.20;27.17;;;;;;;8.41;87.71;101421.76;1780385;80;21302;-75
2021/11/12 15:06:17;;;;;;;56.42;28.02;;;;;;;8.39;87.72;101419.59;1770114;80;20924;-75
2021/11/12 15:08:49;;;;;;;54.35;27.02;;;;;;;8.39;87.73;101422.18;1766805;80;20881;-75
2021/11/12 15:11:19;;;;;;;55.92;28.12;;;;;;;8.38;87.73;101425.61;1772097;80;21008;-75
2021/11/12 15:13:47;;;;;;;57.20;29.30;;;;;;;8.37;87.74;101418.73;1776739;80;20941;-75
2021/11/12 15:16:20;;;;;;;63.25;29.85;;;;;;;8.37;87.74;101417.44;1746859;80;20894;-75
2021/11/12 15:18:44;;;;;;;60.75;29.65;;;;;;;8.36;87.73;101415.72;1779455;80;20894;-75
2021/11/12 15:21:21;;;;;;;63.60;29.42;;;;;;;8.35;87.74;101413.13;1779173;79;21088;-75
2021/11/12 15:33:44;;;;;;;67.17;32.75;;;;;;;8.30;87.70;101411.81;1782255;79;20942;-75
2021/11/12 15:36:11;;;;;;;59.85;30.17;;;;;;;8.26;87.71;101407.06;1778363;79;21115;-75
2021/11/12 15:38:45;;;;;;;65.00;31.85;;;;;;;8.25;87.70;101411.78;1777824;80;21099;-75
2021/11/12 15:41:07;;;;;;;62.98;32.42;;;;;;;8.23;87.70;101410.91;1758052;80;21044;-75
2021/11/12 15:46:25;;;;;;;58.83;29.23;;;;;;;8.23;87.71;101403.61;1778919;80;21066;-75
2021/11/12 15:48:50;;;;;;;61.50;30.90;;;;;;;8.22;87.72;101407.90;1774764;80;21140;-75
2021/11/12 15:54:05;;;;;;;57.20;28.83;;;;;;;8.19;87.68;101410.45;1776016;80;20881;-75
2021/11/12 15:59:48;;;;;;;60.03;30.17;;;;;;;8.18;87.70;101397.56;1772681;80;20853;-75
2021/11/12 16:07:00;;;;;;;59.45;31.17;;;;;;;8.16;87.72;101392.41;1746711;81;20891;-75
2021/11/12 16:15:12;;;;;;;57.90;30.35;;;;;;;8.16;87.71;101396.27;1768482;81;21381;-75
2021/11/12 16:18:33;;;;;;;;;;;;;;;8.14;87.69;101394.11;1768239;80;20858;-75
2021/11/12 16:20:38;;;;;;;52.13;28.00;;;;;;;8.15;87.72;101395.83;1748549;81;20184;-75
2021/11/12 16:23:14;;;;;;;61.50;30.45;;;;;;;8.14;87.69;101395.82;1754819;81;20892;-75
2021/11/12 16:25:28;;;;;;;59.03;29.18;;;;;;;8.12;87.69;101391.08;1767482;80;21434;-76
2021/11/12 16:27:58;;;;;;;56.23;30.08;;;;;;;8.12;87.68;101396.23;1765444;80;20938;-76
2021/11/12 16:30:25;;;;;;;622.55;58.40;;;;;;;8.11;87.71;101395.80;1761769;80;20935;-76
2021/11/12 16:32:52;;;;;;;216.88;50.30;;;;;;;8.10;87.70;101391.50;1765616;80;20855;-77
2021/11/12 16:35:24;;;;;;;124.85;35.68;;;;;;;8.10;87.69;101394.94;1766786;81;20920;-77
2021/11/12 16:37:54;;;;;;;56.77;31.57;;;;;;;8.09;87.69;101394.92;1759952;81;20930;-78
2021/11/12 16:40:32;;;;;;;58.92;33.10;;;;;;;8.08;87.69;101387.62;1750310;81;20901;-78
2021/11/12 16:43:18;;;;;;;62.13;34.48;;;;;;;8.09;87.72;101388.48;1755915;80;21414;-78
2021/11/12 16:46:03;;;;;;;66.28;34.23;;;;;;;8.08;87.72;101387.62;1764315;80;20887;-77
2021/11/12 16:48:41;;;;;;;65.97;34.88;;;;;;;8.09;87.72;101392.34;1749646;79;20895;-76
2021/11/12 16:58:58;;;;;;;68.85;34.38;;;;;;;8.07;87.69;101389.77;1708381;80;20953;-77
2021/11/12 17:01:41;;;;;;;64.90;34.65;;;;;;;8.05;87.69;101383.74;1739308;80;20953;-77
2021/11/12 17:06:26;;;;;;;67.40;34.20;;;;;;;8.04;87.67;101385.87;1734724;80;21525;-77
2021/11/12 17:09:10;;;;;;;62.78;34.30;;;;;;;8.03;87.69;101373.85;1715187;81;21288;-77
2021/11/12 17:11:39;;;;;;;336.52;51.20;;;;;;;8.01;87.66;101371.69;1720994;81;20915;-77
2021/11/12 17:14:35;;;;;;;74.22;41.08;;;;;;;8.00;87.69;101377.70;1705189;81;20934;-77
2021/11/12 17:16:37;;;;;;;59.13;30.30;;;;;;;8.00;87.71;101375.12;1686857;82;20918;-77